Boise City, Oklahoma
Current Conditions -  °F | °C
As of 5:55 PM on Friday 19 Dec 2014 (Local Time) from KCAO Reporting Station
Clear Clear  
Wind Chill: 32°   Ceiling: Unl
Heat Index: 39°   Visibility: 10mi
Dew Point: 29°   Wind: 10mph
Humidity: 67%   Direction: 160°SSE
Pressure: 30.06"   Gusts: NA
Location:  36.73°N, 102.51°W
Report Text: KCAO 192355Z AUTO 16009KT 10SM CLR 04/M02 A3006 RMK AO2 SLP189 T00391017 10100 20039 53005
Loading
Personal Weather Stations






























Interactive Weather Map New forecast layout! Learn more

10-Day Weather Forecast

Advertisements
Track Severe Weather on mobile